Portada
METAR-TAF:

METAR-TAF

Aeroports :

Coimbatore, Índia

latitud: 11-01-36N, longitud: 077-02-30E, altitud: 400 m

Observació

L'informe es va fer fa 20 minuts, a les 10:00 UTC
Vent 7 kt del Nord-Est
Temperatura 34°C
Humitat 26%
Pressió 1010 hPa
Visibilitat: 7000 m
Escasses núvols a una alçada de 1500 ft

METAR: VOCB 271000Z 05007KT 7000 FEW015 34/12 Q1010 NOSIG

Hora: 15:50 (10:20 UTC)

Pronòstic

L'informe es va fer fa 5 hores i 20 minuts, a les 05:00 UTC
Pronòstic vàlid del 27 a les 06 UTC al 28 a les 12 UTC
Vent 10 kt del Nord-Est
Visibilitat: 6000 m
Núvols disperses a una alçada de 1500 ft
Evolucionant progressivament
l' 27 a les 14 UTC al 27 a les 15 UTC
Visibilitat: 5000 m
calitja
Temporalment
l' 28 a les 00 UTC al 28 a les 03 UTC
Visibilitat: 3000 m
boirina
Evolucionant progressivament
l' 28 a les 05 UTC al 28 a les 06 UTC
Visibilitat: 6000 m

TAF: VOCB 270500Z 2706/2812 05010KT 6000 SCT015 BECMG 2714/2715 5000 HZ TEMPO 2800/2803 3000 BR BECMG 2805/2806 6000

Observacions i pronòstics meteorològics de més de 4000 aeroports (METAR i TAF).

Les estacions disponibles són els punts grocs i vermells al mapa.

Posi el ratolí al punt desitjat per veure el nom de l'estació.

Feu clic per veure les observacions i els pronòstics meteorològics.

Per canviar el mapa: feu clic els botons verds amb una creu de color negre per apropar; al botó verd amb un guió per allunyar la imatge; o en les fletxes verdes per a mapes adjacents.


METAR-TAF: